sensor_id;sensor_type;location;lat;lon;timestamp;temperature;humidity
13336;DHT22;6737;51.480;11.962;2023-02-01T00:01:50;4.00;99.90
13336;DHT22;6737;51.480;11.962;2023-02-01T00:04:16;4.10;99.90
13336;DHT22;6737;51.480;11.962;2023-02-01T00:06:42;4.10;99.90
13336;DHT22;6737;51.480;11.962;2023-02-01T00:09:07;4.10;99.90
13336;DHT22;6737;51.480;11.962;2023-02-01T00:11:34;4.10;99.90
13336;DHT22;6737;51.480;11.962;2023-02-01T00:14:00;4.10;99.90
13336;DHT22;6737;51.480;11.962;2023-02-01T00:16:28;4.10;99.90
13336;DHT22;6737;51.480;11.962;2023-02-01T00:19:06;4.10;99.90
13336;DHT22;6737;51.480;11.962;2023-02-01T00:21:32;4.20;99.90
13336;DHT22;6737;51.480;11.962;2023-02-01T00:23:58;4.20;99.90
13336;DHT22;6737;51.480;11.962;2023-02-01T00:26:44;4.20;99.90
13336;DHT22;6737;51.480;11.962;2023-02-01T00:29:16;4.20;99.90
13336;DHT22;6737;51.480;11.962;2023-02-01T00:31:42;4.30;99.90
13336;DHT22;6737;51.480;11.962;2023-02-01T00:34:15;4.30;99.90
13336;DHT22;6737;51.480;11.962;2023-02-01T00:36:41;4.30;99.90
13336;DHT22;6737;51.480;11.962;2023-02-01T00:39:09;4.30;99.90
13336;DHT22;6737;51.480;11.962;2023-02-01T00:41:35;4.30;99.90
13336;DHT22;6737;51.480;11.962;2023-02-01T00:44:01;4.40;99.90
13336;DHT22;6737;51.480;11.962;2023-02-01T00:46:28;4.40;99.90
13336;DHT22;6737;51.480;11.962;2023-02-01T00:48:54;4.50;99.90
13336;DHT22;6737;51.480;11.962;2023-02-01T00:51:23;4.50;99.90
13336;DHT22;6737;51.480;11.962;2023-02-01T00:53:49;4.50;99.90
13336;DHT22;6737;51.480;11.962;2023-02-01T00:56:15;4.50;99.90
13336;DHT22;6737;51.480;11.962;2023-02-01T00:58:41;4.50;99.90
13336;DHT22;6737;51.480;11.962;2023-02-01T01:01:09;4.50;99.90
13336;DHT22;6737;51.480;11.962;2023-02-01T01:03:39;4.40;99.90
13336;DHT22;6737;51.480;11.962;2023-02-01T01:06:08;4.40;99.90
13336;DHT22;6737;51.480;11.962;2023-02-01T01:08:35;4.40;99.90
13336;DHT22;6737;51.480;11.962;2023-02-01T01:11:13;4.30;99.90
13336;DHT22;6737;51.480;11.962;2023-02-01T01:13:40;4.40;99.90
13336;DHT22;6737;51.480;11.962;2023-02-01T01:16:08;4.40;99.90
13336;DHT22;6737;51.480;11.962;2023-02-01T01:18:34;4.40;99.90
13336;DHT22;6737;51.480;11.962;2023-02-01T01:21:01;4.40;99.90
13336;DHT22;6737;51.480;11.962;2023-02-01T01:23:27;4.40;99.90
13336;DHT22;6737;51.480;11.962;2023-02-01T01:25:53;4.40;99.90
13336;DHT22;6737;51.480;11.962;2023-02-01T01:28:19;4.40;99.90
13336;DHT22;6737;51.480;11.962;2023-02-01T01:30:45;4.40;99.90
13336;DHT22;6737;51.480;11.962;2023-02-01T01:33:11;4.40;99.90
13336;DHT22;6737;51.480;11.962;2023-02-01T01:35:36;4.30;99.90
13336;DHT22;6737;51.480;11.962;2023-02-01T01:38:02;4.30;99.90
13336;DHT22;6737;51.480;11.962;2023-02-01T01:40:29;4.20;99.90
13336;DHT22;6737;51.480;11.962;2023-02-01T01:42:56;4.20;99.90
13336;DHT22;6737;51.480;11.962;2023-02-01T01:47:54;4.10;99.90
13336;DHT22;6737;51.480;11.962;2023-02-01T01:50:35;4.00;99.90
13336;DHT22;6737;51.480;11.962;2023-02-01T01:53:06;3.90;99.90
13336;DHT22;6737;51.480;11.962;2023-02-01T01:55:36;3.80;99.90
13336;DHT22;6737;51.480;11.962;2023-02-01T01:58:06;3.90;99.90
13336;DHT22;6737;51.480;11.962;2023-02-01T02:00:34;3.80;99.90
13336;DHT22;6737;51.480;11.962;2023-02-01T02:03:05;3.90;99.90
13336;DHT22;6737;51.480;11.962;2023-02-01T02:05:34;4.10;99.90
13336;DHT22;6737;51.480;11.962;2023-02-01T02:08:00;4.10;99.90
13336;DHT22;6737;51.480;11.962;2023-02-01T02:10:27;4.30;99.90
13336;DHT22;6737;51.480;11.962;2023-02-01T02:13:14;4.40;99.90
13336;DHT22;6737;51.480;11.962;2023-02-01T02:15:45;4.40;99.90
13336;DHT22;6737;51.480;11.962;2023-02-01T02:18:31;4.50;99.90
13336;DHT22;6737;51.480;11.962;2023-02-01T02:29:30;4.70;99.90
13336;DHT22;6737;51.480;11.962;2023-02-01T02:32:28;4.70;99.90
13336;DHT22;6737;51.480;11.962;2023-02-01T02:37:45;4.80;99.90
13336;DHT22;6737;51.480;11.962;2023-02-01T02:40:21;4.70;99.90
13336;DHT22;6737;51.480;11.962;2023-02-01T02:46:21;4.70;99.90
13336;DHT22;6737;51.480;11.962;2023-02-01T02:52:19;4.70;99.90
13336;DHT22;6737;51.480;11.962;2023-02-01T02:55:05;4.70;99.90
13336;DHT22;6737;51.480;11.962;2023-02-01T02:57:40;4.80;99.90
13336;DHT22;6737;51.480;11.962;2023-02-01T03:00:32;4.70;99.90
13336;DHT22;6737;51.480;11.962;2023-02-01T03:03:17;4.70;99.90
13336;DHT22;6737;51.480;11.962;2023-02-01T03:06:01;4.70;99.90
13336;DHT22;6737;51.480;11.962;2023-02-01T03:08:30;4.70;99.90
13336;DHT22;6737;51.480;11.962;2023-02-01T03:11:10;4.70;99.90
13336;DHT22;6737;51.480;11.962;2023-02-01T03:13:59;4.60;99.90
13336;DHT22;6737;51.480;11.962;2023-02-01T03:16:36;4.60;99.90
13336;DHT22;6737;51.480;11.962;2023-02-01T03:19:15;4.50;99.90
13336;DHT22;6737;51.480;11.962;2023-02-01T03:21:48;4.50;99.90
13336;DHT22;6737;51.480;11.962;2023-02-01T03:24:21;4.50;99.90
13336;DHT22;6737;51.480;11.962;2023-02-01T03:26:54;4.40;99.90
13336;DHT22;6737;51.480;11.962;2023-02-01T03:29:26;4.30;99.90
13336;DHT22;6737;51.480;11.962;2023-02-01T03:31:52;4.30;99.90
13336;DHT22;6737;51.480;11.962;2023-02-01T03:34:18;4.30;99.90
13336;DHT22;6737;51.480;11.962;2023-02-01T03:36:48;4.30;99.90
13336;DHT22;6737;51.480;11.962;2023-02-01T03:39:27;4.30;99.90
13336;DHT22;6737;51.480;11.962;2023-02-01T03:42:04;4.40;99.90
13336;DHT22;6737;51.480;11.962;2023-02-01T03:44:37;4.30;99.90
13336;DHT22;6737;51.480;11.962;2023-02-01T03:47:32;4.30;99.90
13336;DHT22;6737;51.480;11.962;2023-02-01T03:50:24;4.30;99.90
13336;DHT22;6737;51.480;11.962;2023-02-01T03:53:05;4.30;99.90
13336;DHT22;6737;51.480;11.962;2023-02-01T03:55:32;4.30;99.90
13336;DHT22;6737;51.480;11.962;2023-02-01T03:58:11;4.40;99.90
13336;DHT22;6737;51.480;11.962;2023-02-01T04:00:38;4.40;99.90
13336;DHT22;6737;51.480;11.962;2023-02-01T04:03:06;4.50;99.90
13336;DHT22;6737;51.480;11.962;2023-02-01T04:05:33;4.50;99.90
13336;DHT22;6737;51.480;11.962;2023-02-01T04:08:11;4.50;99.90
13336;DHT22;6737;51.480;11.962;2023-02-01T04:10:36;4.60;99.90
13336;DHT22;6737;51.480;11.962;2023-02-01T04:13:02;4.60;99.90
13336;DHT22;6737;51.480;11.962;2023-02-01T04:15:28;4.70;99.90
13336;DHT22;6737;51.480;11.962;2023-02-01T04:17:53;4.70;99.90
13336;DHT22;6737;51.480;11.962;2023-02-01T04:20:19;4.70;99.90
13336;DHT22;6737;51.480;11.962;2023-02-01T04:22:45;4.80;99.90
13336;DHT22;6737;51.480;11.962;2023-02-01T04:25:11;4.80;99.90
13336;DHT22;6737;51.480;11.962;2023-02-01T04:27:37;4.90;99.90
13336;DHT22;6737;51.480;11.962;2023-02-01T04:30:04;4.90;99.90
13336;DHT22;6737;51.480;11.962;2023-02-01T04:32:30;4.90;99.90
13336;DHT22;6737;51.480;11.962;2023-02-01T04:34:55;4.90;99.90
13336;DHT22;6737;51.480;11.962;2023-02-01T04:37:21;4.90;99.90
13336;DHT22;6737;51.480;11.962;2023-02-01T04:39:47;4.90;99.90
13336;DHT22;6737;51.480;11.962;2023-02-01T04:42:12;4.90;99.90
13336;DHT22;6737;51.480;11.962;2023-02-01T04:44:38;5.00;99.90
13336;DHT22;6737;51.480;11.962;2023-02-01T04:47:07;5.00;99.90
13336;DHT22;6737;51.480;11.962;2023-02-01T04:49:33;4.90;99.90
13336;DHT22;6737;51.480;11.962;2023-02-01T04:51:59;4.90;99.90
13336;DHT22;6737;51.480;11.962;2023-02-01T04:54:25;4.80;99.90
13336;DHT22;6737;51.480;11.962;2023-02-01T04:56:50;4.70;99.90
13336;DHT22;6737;51.480;11.962;2023-02-01T04:59:16;4.70;99.90
13336;DHT22;6737;51.480;11.962;2023-02-01T05:01:42;4.70;99.90
13336;DHT22;6737;51.480;11.962;2023-02-01T05:04:08;4.60;99.90
13336;DHT22;6737;51.480;11.962;2023-02-01T05:06:34;4.60;99.90
13336;DHT22;6737;51.480;11.962;2023-02-01T05:08:59;4.50;99.90
13336;DHT22;6737;51.480;11.962;2023-02-01T05:11:25;4.50;99.90
13336;DHT22;6737;51.480;11.962;2023-02-01T05:14:09;4.50;99.90
13336;DHT22;6737;51.480;11.962;2023-02-01T05:16:35;4.40;99.90
13336;DHT22;6737;51.480;11.962;2023-02-01T05:19:01;4.40;99.90
13336;DHT22;6737;51.480;11.962;2023-02-01T05:21:27;4.40;99.90
13336;DHT22;6737;51.480;11.962;2023-02-01T05:23:53;4.40;99.90
13336;DHT22;6737;51.480;11.962;2023-02-01T05:26:41;4.30;99.90
13336;DHT22;6737;51.480;11.962;2023-02-01T05:29:08;4.20;99.90
13336;DHT22;6737;51.480;11.962;2023-02-01T05:31:35;4.10;99.90
13336;DHT22;6737;51.480;11.962;2023-02-01T05:34:01;4.00;99.90
13336;DHT22;6737;51.480;11.962;2023-02-01T05:36:26;4.00;99.90
13336;DHT22;6737;51.480;11.962;2023-02-01T05:38:52;3.90;99.90
13336;DHT22;6737;51.480;11.962;2023-02-01T05:41:18;3.90;99.90
13336;DHT22;6737;51.480;11.962;2023-02-01T05:43:44;3.90;99.90
13336;DHT22;6737;51.480;11.962;2023-02-01T05:46:09;3.90;99.90
13336;DHT22;6737;51.480;11.962;2023-02-01T05:48:38;3.90;99.90
13336;DHT22;6737;51.480;11.962;2023-02-01T05:51:04;3.90;99.90
13336;DHT22;6737;51.480;11.962;2023-02-01T05:53:30;3.90;99.90
13336;DHT22;6737;51.480;11.962;2023-02-01T05:55:56;4.00;99.90
13336;DHT22;6737;51.480;11.962;2023-02-01T05:58:22;4.00;99.90
13336;DHT22;6737;51.480;11.962;2023-02-01T06:00:48;4.10;99.90
13336;DHT22;6737;51.480;11.962;2023-02-01T06:03:13;4.10;99.90
13336;DHT22;6737;51.480;11.962;2023-02-01T06:05:39;4.20;99.90
13336;DHT22;6737;51.480;11.962;2023-02-01T06:08:05;4.20;99.90
13336;DHT22;6737;51.480;11.962;2023-02-01T06:10:33;4.20;99.90
13336;DHT22;6737;51.480;11.962;2023-02-01T06:12:59;4.20;99.90
13336;DHT22;6737;51.480;11.962;2023-02-01T06:15:25;4.20;99.90
13336;DHT22;6737;51.480;11.962;2023-02-01T06:17:51;4.10;99.90
13336;DHT22;6737;51.480;11.962;2023-02-01T06:20:17;4.10;99.90
13336;DHT22;6737;51.480;11.962;2023-02-01T06:22:42;4.10;99.90
13336;DHT22;6737;51.480;11.962;2023-02-01T06:25:09;4.10;99.90
13336;DHT22;6737;51.480;11.962;2023-02-01T06:27:35;4.10;99.90
13336;DHT22;6737;51.480;11.962;2023-02-01T06:30:03;4.00;99.90
13336;DHT22;6737;51.480;11.962;2023-02-01T06:32:29;4.10;99.90
13336;DHT22;6737;51.480;11.962;2023-02-01T06:34:54;4.10;99.90
13336;DHT22;6737;51.480;11.962;2023-02-01T06:37:22;4.10;99.90
13336;DHT22;6737;51.480;11.962;2023-02-01T06:39:49;4.20;99.90
13336;DHT22;6737;51.480;11.962;2023-02-01T06:42:14;4.20;99.90
13336;DHT22;6737;51.480;11.962;2023-02-01T06:44:40;4.30;99.90
13336;DHT22;6737;51.480;11.962;2023-02-01T06:47:06;4.30;99.90
13336;DHT22;6737;51.480;11.962;2023-02-01T06:49:31;4.40;99.90
13336;DHT22;6737;51.480;11.962;2023-02-01T06:51:57;4.40;99.90
13336;DHT22;6737;51.480;11.962;2023-02-01T06:54:26;4.40;99.90
13336;DHT22;6737;51.480;11.962;2023-02-01T06:56:52;4.30;99.90
13336;DHT22;6737;51.480;11.962;2023-02-01T06:59:18;4.30;99.90
13336;DHT22;6737;51.480;11.962;2023-02-01T07:01:44;4.30;99.90
13336;DHT22;6737;51.480;11.962;2023-02-01T07:04:11;4.30;99.90
13336;DHT22;6737;51.480;11.962;2023-02-01T07:06:38;4.30;99.90
13336;DHT22;6737;51.480;11.962;2023-02-01T07:09:05;4.40;99.90
13336;DHT22;6737;51.480;11.962;2023-02-01T07:11:31;4.40;99.90
13336;DHT22;6737;51.480;11.962;2023-02-01T07:13:57;4.50;99.90
13336;DHT22;6737;51.480;11.962;2023-02-01T07:16:23;4.50;99.90
13336;DHT22;6737;51.480;11.962;2023-02-01T07:18:50;4.50;99.90
13336;DHT22;6737;51.480;11.962;2023-02-01T07:21:17;4.50;99.90
13336;DHT22;6737;51.480;11.962;2023-02-01T07:23:42;4.60;99.90
13336;DHT22;6737;51.480;11.962;2023-02-01T07:26:12;4.60;99.90
13336;DHT22;6737;51.480;11.962;2023-02-01T07:28:38;4.60;99.90
13336;DHT22;6737;51.480;11.962;2023-02-01T07:31:26;4.70;99.90
13336;DHT22;6737;51.480;11.962;2023-02-01T07:33:54;4.60;99.90
13336;DHT22;6737;51.480;11.962;2023-02-01T07:36:21;4.70;99.90
13336;DHT22;6737;51.480;11.962;2023-02-01T07:38:47;4.70;99.90
13336;DHT22;6737;51.480;11.962;2023-02-01T07:41:14;4.70;99.90
13336;DHT22;6737;51.480;11.962;2023-02-01T07:43:40;4.70;99.90
13336;DHT22;6737;51.480;11.962;2023-02-01T07:46:06;4.70;99.90
13336;DHT22;6737;51.480;11.962;2023-02-01T07:48:32;4.80;99.90
13336;DHT22;6737;51.480;11.962;2023-02-01T07:51:10;4.80;99.90
13336;DHT22;6737;51.480;11.962;2023-02-01T07:53:36;4.80;99.90
13336;DHT22;6737;51.480;11.962;2023-02-01T07:56:03;4.90;99.90
13336;DHT22;6737;51.480;11.962;2023-02-01T07:58:30;4.90;99.90
13336;DHT22;6737;51.480;11.962;2023-02-01T08:00:55;4.90;99.90
13336;DHT22;6737;51.480;11.962;2023-02-01T08:03:40;4.90;99.90
13336;DHT22;6737;51.480;11.962;2023-02-01T08:06:06;5.00;99.90
13336;DHT22;6737;51.480;11.962;2023-02-01T08:08:32;5.10;99.90
13336;DHT22;6737;51.480;11.962;2023-02-01T08:11:03;5.10;99.90
13336;DHT22;6737;51.480;11.962;2023-02-01T08:13:29;5.10;99.90
13336;DHT22;6737;51.480;11.962;2023-02-01T08:16:01;5.00;99.90
13336;DHT22;6737;51.480;11.962;2023-02-01T08:18:28;5.00;99.90
13336;DHT22;6737;51.480;11.962;2023-02-01T08:20:54;5.00;99.90
13336;DHT22;6737;51.480;11.962;2023-02-01T08:23:21;5.00;99.90
13336;DHT22;6737;51.480;11.962;2023-02-01T08:25:47;5.00;99.90
13336;DHT22;6737;51.480;11.962;2023-02-01T08:28:13;4.90;99.90
13336;DHT22;6737;51.480;11.962;2023-02-01T08:30:40;4.80;99.90
13336;DHT22;6737;51.480;11.962;2023-02-01T08:33:08;4.80;99.90
13336;DHT22;6737;51.480;11.962;2023-02-01T08:35:37;4.70;99.90
13336;DHT22;6737;51.480;11.962;2023-02-01T08:38:03;4.70;99.90
13336;DHT22;6737;51.480;11.962;2023-02-01T08:40:29;4.60;99.90
13336;DHT22;6737;51.480;11.962;2023-02-01T08:42:55;4.50;99.90
13336;DHT22;6737;51.480;11.962;2023-02-01T08:45:26;4.40;99.90
13336;DHT22;6737;51.480;11.962;2023-02-01T08:47:54;4.40;99.90
13336;DHT22;6737;51.480;11.962;2023-02-01T08:50:20;4.40;99.90
13336;DHT22;6737;51.480;11.962;2023-02-01T08:52:47;4.30;99.90
13336;DHT22;6737;51.480;11.962;2023-02-01T08:55:14;4.30;99.90
13336;DHT22;6737;51.480;11.962;2023-02-01T08:57:40;4.20;99.90
13336;DHT22;6737;51.480;11.962;2023-02-01T09:00:08;4.20;99.90
13336;DHT22;6737;51.480;11.962;2023-02-01T09:02:35;4.20;99.90
13336;DHT22;6737;51.480;11.962;2023-02-01T09:05:01;4.30;99.90
13336;DHT22;6737;51.480;11.962;2023-02-01T09:07:26;4.30;99.90
13336;DHT22;6737;51.480;11.962;2023-02-01T09:09:52;4.30;99.90
13336;DHT22;6737;51.480;11.962;2023-02-01T09:12:20;4.40;99.90
13336;DHT22;6737;51.480;11.962;2023-02-01T09:14:46;4.40;99.90
13336;DHT22;6737;51.480;11.962;2023-02-01T09:17:11;4.40;99.90
13336;DHT22;6737;51.480;11.962;2023-02-01T09:19:39;4.40;99.90
13336;DHT22;6737;51.480;11.962;2023-02-01T09:22:05;4.50;99.90
13336;DHT22;6737;51.480;11.962;2023-02-01T09:24:31;4.60;99.90
13336;DHT22;6737;51.480;11.962;2023-02-01T09:26:57;4.70;99.90
13336;DHT22;6737;51.480;11.962;2023-02-01T09:29:23;4.80;99.90
13336;DHT22;6737;51.480;11.962;2023-02-01T09:31:48;4.80;99.90
13336;DHT22;6737;51.480;11.962;2023-02-01T09:34:14;4.90;99.90
13336;DHT22;6737;51.480;11.962;2023-02-01T09:36:40;4.90;99.90
13336;DHT22;6737;51.480;11.962;2023-02-01T09:39:06;5.00;99.90
13336;DHT22;6737;51.480;11.962;2023-02-01T09:45:06;5.20;99.90
13336;DHT22;6737;51.480;11.962;2023-02-01T09:47:35;5.20;99.90
13336;DHT22;6737;51.480;11.962;2023-02-01T09:50:11;5.30;99.90
13336;DHT22;6737;51.480;11.962;2023-02-01T09:53:32;5.40;99.90
13336;DHT22;6737;51.480;11.962;2023-02-01T09:55:55;5.40;99.90
13336;DHT22;6737;51.480;11.962;2023-02-01T09:58:30;5.50;99.90
13336;DHT22;6737;51.480;11.962;2023-02-01T10:01:00;5.50;99.90
13336;DHT22;6737;51.480;11.962;2023-02-01T10:03:31;5.60;99.90
13336;DHT22;6737;51.480;11.962;2023-02-01T10:06:53;5.70;99.90
13336;DHT22;6737;51.480;11.962;2023-02-01T10:17:29;6.00;99.90
13336;DHT22;6737;51.480;11.962;2023-02-01T10:20:01;6.10;99.90
13336;DHT22;6737;51.480;11.962;2023-02-01T10:22:43;6.10;99.90
13336;DHT22;6737;51.480;11.962;2023-02-01T10:25:13;6.10;99.90
13336;DHT22;6737;51.480;11.962;2023-02-01T10:27:39;6.30;99.90
13336;DHT22;6737;51.480;11.962;2023-02-01T10:32:40;6.40;99.90
13336;DHT22;6737;51.480;11.962;2023-02-01T10:37:41;6.50;99.90
13336;DHT22;6737;51.480;11.962;2023-02-01T10:40:22;6.50;99.90
13336;DHT22;6737;51.480;11.962;2023-02-01T10:42:56;6.40;99.90
13336;DHT22;6737;51.480;11.962;2023-02-01T10:45:26;6.30;99.90
13336;DHT22;6737;51.480;11.962;2023-02-01T10:47:55;6.30;99.90
13336;DHT22;6737;51.480;11.962;2023-02-01T10:50:44;6.50;99.90
13336;DHT22;6737;51.480;11.962;2023-02-01T10:55:51;6.60;99.90
13336;DHT22;6737;51.480;11.962;2023-02-01T10:58:29;6.60;99.90
13336;DHT22;6737;51.480;11.962;2023-02-01T11:01:08;6.60;99.90
13336;DHT22;6737;51.480;11.962;2023-02-01T11:03:52;6.70;99.90
13336;DHT22;6737;51.480;11.962;2023-02-01T11:06:27;6.70;99.90
13336;DHT22;6737;51.480;11.962;2023-02-01T11:11:32;6.60;99.90
13336;DHT22;6737;51.480;11.962;2023-02-01T11:14:00;6.60;99.90
13336;DHT22;6737;51.480;11.962;2023-02-01T11:16:36;6.60;99.90
13336;DHT22;6737;51.480;11.962;2023-02-01T11:19:03;6.60;99.90
13336;DHT22;6737;51.480;11.962;2023-02-01T11:21:29;6.60;99.90
13336;DHT22;6737;51.480;11.962;2023-02-01T11:24:01;6.60;99.90
13336;DHT22;6737;51.480;11.962;2023-02-01T11:26:28;6.70;99.90
13336;DHT22;6737;51.480;11.962;2023-02-01T11:29:05;6.70;99.90
13336;DHT22;6737;51.480;11.962;2023-02-01T11:31:35;6.80;99.90
13336;DHT22;6737;51.480;11.962;2023-02-01T11:34:17;6.80;99.90
13336;DHT22;6737;51.480;11.962;2023-02-01T11:36:46;6.70;99.90
13336;DHT22;6737;51.480;11.962;2023-02-01T11:39:20;6.70;99.90
13336;DHT22;6737;51.480;11.962;2023-02-01T11:42:16;6.70;99.90
13336;DHT22;6737;51.480;11.962;2023-02-01T11:44:44;6.80;99.90
13336;DHT22;6737;51.480;11.962;2023-02-01T11:47:28;6.80;99.90
13336;DHT22;6737;51.480;11.962;2023-02-01T11:49:57;6.80;99.90
13336;DHT22;6737;51.480;11.962;2023-02-01T11:52:36;6.80;99.90
13336;DHT22;6737;51.480;11.962;2023-02-01T12:04:38;7.00;99.90
13336;DHT22;6737;51.480;11.962;2023-02-01T12:06:35;7.10;99.90
13336;DHT22;6737;51.480;11.962;2023-02-01T12:09:43;7.10;99.90
13336;DHT22;6737;51.480;11.962;2023-02-01T12:25:55;7.30;99.90
13336;DHT22;6737;51.480;11.962;2023-02-01T12:28:30;7.30;99.90
13336;DHT22;6737;51.480;11.962;2023-02-01T12:42:43;7.40;99.90
13336;DHT22;6737;51.480;11.962;2023-02-01T12:45:24;7.50;99.90
13336;DHT22;6737;51.480;11.962;2023-02-01T12:48:05;7.50;99.90
13336;DHT22;6737;51.480;11.962;2023-02-01T12:50:45;7.50;99.90
13336;DHT22;6737;51.480;11.962;2023-02-01T12:53:25;7.50;99.90
13336;DHT22;6737;51.480;11.962;2023-02-01T12:55:58;7.40;99.90
13336;DHT22;6737;51.480;11.962;2023-02-01T12:58:32;7.30;99.90
13336;DHT22;6737;51.480;11.962;2023-02-01T13:01:07;7.30;99.90
13336;DHT22;6737;51.480;11.962;2023-02-01T13:03:43;7.30;99.90
13336;DHT22;6737;51.480;11.962;2023-02-01T13:06:26;7.20;99.90
13336;DHT22;6737;51.480;11.962;2023-02-01T13:09:18;7.20;99.90
13336;DHT22;6737;51.480;11.962;2023-02-01T13:11:43;7.20;99.90
13336;DHT22;6737;51.480;11.962;2023-02-01T13:17:10;7.20;99.90
13336;DHT22;6737;51.480;11.962;2023-02-01T13:19:48;7.10;99.90
13336;DHT22;6737;51.480;11.962;2023-02-01T13:22:21;7.10;99.90
13336;DHT22;6737;51.480;11.962;2023-02-01T13:25:11;7.10;99.90
13336;DHT22;6737;51.480;11.962;2023-02-01T13:27:38;7.00;99.90
13336;DHT22;6737;51.480;11.962;2023-02-01T13:33:22;7.00;99.90
13336;DHT22;6737;51.480;11.962;2023-02-01T13:38:49;7.20;99.90
13336;DHT22;6737;51.480;11.962;2023-02-01T13:43:59;7.50;99.90
13336;DHT22;6737;51.480;11.962;2023-02-01T13:46:27;7.60;99.90
13336;DHT22;6737;51.480;11.962;2023-02-01T13:48:56;7.70;99.90
13336;DHT22;6737;51.480;11.962;2023-02-01T13:51:43;7.70;99.90
13336;DHT22;6737;51.480;11.962;2023-02-01T13:56:55;7.70;99.90
13336;DHT22;6737;51.480;11.962;2023-02-01T14:05:01;7.70;99.90
13336;DHT22;6737;51.480;11.962;2023-02-01T14:07:28;7.70;99.90
13336;DHT22;6737;51.480;11.962;2023-02-01T14:09:54;7.70;99.90
13336;DHT22;6737;51.480;11.962;2023-02-01T14:12:48;7.80;99.90
13336;DHT22;6737;51.480;11.962;2023-02-01T14:15:25;7.70;99.90
13336;DHT22;6737;51.480;11.962;2023-02-01T14:17:52;7.70;99.90
13336;DHT22;6737;51.480;11.962;2023-02-01T14:20:40;7.70;99.90
13336;DHT22;6737;51.480;11.962;2023-02-01T14:23:16;7.90;99.90
13336;DHT22;6737;51.480;11.962;2023-02-01T14:25:44;7.90;99.90
13336;DHT22;6737;51.480;11.962;2023-02-01T14:28:31;8.00;99.90
13336;DHT22;6737;51.480;11.962;2023-02-01T14:30:58;8.00;99.90
13336;DHT22;6737;51.480;11.962;2023-02-01T14:33:26;8.00;99.90
13336;DHT22;6737;51.480;11.962;2023-02-01T14:36:13;7.90;99.90
13336;DHT22;6737;51.480;11.962;2023-02-01T14:38:48;7.80;99.90
13336;DHT22;6737;51.480;11.962;2023-02-01T14:41:28;7.70;99.90
13336;DHT22;6737;51.480;11.962;2023-02-01T14:49:33;7.30;99.90
13336;DHT22;6737;51.480;11.962;2023-02-01T14:52:04;7.20;99.90
13336;DHT22;6737;51.480;11.962;2023-02-01T14:54:32;7.00;99.90
13336;DHT22;6737;51.480;11.962;2023-02-01T14:56:58;7.00;99.90
13336;DHT22;6737;51.480;11.962;2023-02-01T14:59:25;6.80;99.90
13336;DHT22;6737;51.480;11.962;2023-02-01T15:02:00;6.70;99.90
13336;DHT22;6737;51.480;11.962;2023-02-01T15:04:27;6.60;99.90
13336;DHT22;6737;51.480;11.962;2023-02-01T15:07:05;6.60;99.90
13336;DHT22;6737;51.480;11.962;2023-02-01T15:09:36;6.60;99.90
13336;DHT22;6737;51.480;11.962;2023-02-01T15:14:41;6.40;99.90
13336;DHT22;6737;51.480;11.962;2023-02-01T15:17:22;6.30;99.90
13336;DHT22;6737;51.480;11.962;2023-02-01T15:19:59;6.40;99.90
13336;DHT22;6737;51.480;11.962;2023-02-01T15:22:26;6.30;99.90
13336;DHT22;6737;51.480;11.962;2023-02-01T15:24:58;6.30;99.90
13336;DHT22;6737;51.480;11.962;2023-02-01T15:27:25;6.30;99.90
13336;DHT22;6737;51.480;11.962;2023-02-01T15:29:51;6.30;99.90
13336;DHT22;6737;51.480;11.962;2023-02-01T15:32:32;6.20;99.90
13336;DHT22;6737;51.480;11.962;2023-02-01T15:34:59;6.10;99.90
13336;DHT22;6737;51.480;11.962;2023-02-01T15:37:28;6.10;99.90
13336;DHT22;6737;51.480;11.962;2023-02-01T15:42:52;6.10;99.90
13336;DHT22;6737;51.480;11.962;2023-02-01T15:45:21;6.00;99.90
13336;DHT22;6737;51.480;11.962;2023-02-01T15:47:52;5.40;99.90
13336;DHT22;6737;51.480;11.962;2023-02-01T15:50:19;4.40;99.90
13336;DHT22;6737;51.480;11.962;2023-02-01T15:52:50;4.00;99.90
13336;DHT22;6737;51.480;11.962;2023-02-01T15:57:56;3.20;99.90
13336;DHT22;6737;51.480;11.962;2023-02-01T16:00:25;3.10;99.90
13336;DHT22;6737;51.480;11.962;2023-02-01T16:02:57;3.10;99.90
13336;DHT22;6737;51.480;11.962;2023-02-01T16:05:34;3.00;99.90
13336;DHT22;6737;51.480;11.962;2023-02-01T16:08:06;3.00;99.90
13336;DHT22;6737;51.480;11.962;2023-02-01T16:10:46;3.00;99.90
13336;DHT22;6737;51.480;11.962;2023-02-01T16:13:15;3.00;99.90
13336;DHT22;6737;51.480;11.962;2023-02-01T16:15:41;3.00;99.90
13336;DHT22;6737;51.480;11.962;2023-02-01T16:18:08;3.10;99.90
13336;DHT22;6737;51.480;11.962;2023-02-01T16:20:36;3.10;99.90
13336;DHT22;6737;51.480;11.962;2023-02-01T16:23:03;3.20;99.90
13336;DHT22;6737;51.480;11.962;2023-02-01T16:25:30;3.20;99.90
13336;DHT22;6737;51.480;11.962;2023-02-01T16:27:56;3.20;99.90
13336;DHT22;6737;51.480;11.962;2023-02-01T16:30:22;3.20;99.90
13336;DHT22;6737;51.480;11.962;2023-02-01T16:35:26;3.20;99.90
13336;DHT22;6737;51.480;11.962;2023-02-01T16:37:52;3.30;99.90
13336;DHT22;6737;51.480;11.962;2023-02-01T16:40:20;3.30;99.90
13336;DHT22;6737;51.480;11.962;2023-02-01T16:42:50;3.20;99.90
13336;DHT22;6737;51.480;11.962;2023-02-01T16:45:16;3.30;99.90
13336;DHT22;6737;51.480;11.962;2023-02-01T16:47:49;3.30;99.90
13336;DHT22;6737;51.480;11.962;2023-02-01T16:50:25;3.40;99.90
13336;DHT22;6737;51.480;11.962;2023-02-01T16:52:52;3.40;99.90
13336;DHT22;6737;51.480;11.962;2023-02-01T16:55:19;3.40;99.90
13336;DHT22;6737;51.480;11.962;2023-02-01T16:57:47;3.50;99.90
13336;DHT22;6737;51.480;11.962;2023-02-01T17:00:14;3.50;99.90
13336;DHT22;6737;51.480;11.962;2023-02-01T17:02:43;3.50;99.90
13336;DHT22;6737;51.480;11.962;2023-02-01T17:05:11;3.50;99.90
13336;DHT22;6737;51.480;11.962;2023-02-01T17:07:38;3.50;99.90
13336;DHT22;6737;51.480;11.962;2023-02-01T17:10:06;3.40;99.90
13336;DHT22;6737;51.480;11.962;2023-02-01T17:12:32;3.40;99.90
13336;DHT22;6737;51.480;11.962;2023-02-01T17:14:59;3.40;99.90
13336;DHT22;6737;51.480;11.962;2023-02-01T17:17:45;3.30;99.90
13336;DHT22;6737;51.480;11.962;2023-02-01T17:20:23;3.30;99.90
13336;DHT22;6737;51.480;11.962;2023-02-01T17:22:50;3.20;99.90
13336;DHT22;6737;51.480;11.962;2023-02-01T17:25:17;3.30;99.90
13336;DHT22;6737;51.480;11.962;2023-02-01T17:27:44;3.20;99.90
13336;DHT22;6737;51.480;11.962;2023-02-01T17:30:11;3.20;99.90
13336;DHT22;6737;51.480;11.962;2023-02-01T17:32:38;3.20;99.90
13336;DHT22;6737;51.480;11.962;2023-02-01T17:35:05;3.20;99.90
13336;DHT22;6737;51.480;11.962;2023-02-01T17:37:33;3.20;99.90
13336;DHT22;6737;51.480;11.962;2023-02-01T17:40:00;3.20;99.90
13336;DHT22;6737;51.480;11.962;2023-02-01T17:42:28;3.20;99.90
13336;DHT22;6737;51.480;11.962;2023-02-01T17:44:59;3.20;99.90
13336;DHT22;6737;51.480;11.962;2023-02-01T17:47:25;3.10;99.90
13336;DHT22;6737;51.480;11.962;2023-02-01T17:49:51;3.10;99.90
13336;DHT22;6737;51.480;11.962;2023-02-01T17:52:23;3.10;99.90
13336;DHT22;6737;51.480;11.962;2023-02-01T17:54:49;3.20;99.90
13336;DHT22;6737;51.480;11.962;2023-02-01T17:57:18;3.10;99.90
13336;DHT22;6737;51.480;11.962;2023-02-01T17:59:44;3.20;99.90